createdAt,value
2019-06-15T00:01:19.209Z,76.36
2019-06-15T00:03:45.289Z,76.11
2019-06-15T00:06:11.256Z,76.16
2019-06-15T00:08:37.267Z,76.29
2019-06-15T00:11:03.409Z,76.74
2019-06-15T00:13:29.398Z,76.46
2019-06-15T00:15:55.396Z,76.58
2019-06-15T00:18:21.389Z,76.58
2019-06-15T00:20:47.428Z,76.84
2019-06-15T00:23:13.419Z,76.90
2019-06-15T00:25:39.484Z,77.13
2019-06-15T00:28:05.584Z,76.98
2019-06-15T00:30:31.621Z,77.49
2019-06-15T00:32:57.645Z,77.85
2019-06-15T00:35:23.640Z,77.63
2019-06-15T00:37:49.666Z,77.12
2019-06-15T00:40:16.229Z,77.78
2019-06-15T00:42:42.207Z,77.68
2019-06-15T00:45:08.424Z,77.48
2019-06-15T00:47:34.570Z,76.78
2019-06-15T00:50:00.805Z,77.19
2019-06-15T00:52:26.816Z,77.32
2019-06-15T00:54:52.944Z,77.35
2019-06-15T00:57:19.036Z,77.27
2019-06-15T00:59:45.041Z,77.19
2019-06-15T01:02:11.406Z,76.80
2019-06-15T01:04:37.543Z,76.90
2019-06-15T01:07:03.773Z,76.64
2019-06-15T01:09:29.999Z,77.05
2019-06-15T01:11:56.105Z,76.93
2019-06-15T01:14:22.225Z,76.42
2019-06-15T01:16:48.213Z,76.55
2019-06-15T01:19:14.298Z,76.98
2019-06-15T01:21:40.423Z,76.96
2019-06-15T01:24:06.481Z,76.49
2019-06-15T01:26:32.477Z,76.37
2019-06-15T01:28:58.495Z,76.32
2019-06-15T01:31:24.606Z,76.62
2019-06-15T01:33:50.639Z,76.49
2019-06-15T01:36:16.633Z,75.81
2019-06-15T01:38:42.642Z,75.73
2019-06-15T01:41:08.685Z,76.25
2019-06-15T01:43:34.731Z,76.30
2019-06-15T01:46:00.781Z,76.22
2019-06-15T01:48:26.895Z,75.52
2019-06-15T01:50:52.886Z,75.97
2019-06-15T01:53:18.862Z,76.17
2019-06-15T01:55:44.875Z,76.11
2019-06-15T01:58:11.157Z,75.93
2019-06-15T02:00:37.202Z,74.96
2019-06-15T02:03:03.265Z,75.22
2019-06-15T02:05:29.239Z,75.01
2019-06-15T02:07:55.246Z,74.81
2019-06-15T02:10:27.302Z,74.84
2019-06-15T02:12:53.285Z,74.88
2019-06-15T02:15:19.293Z,75.01
2019-06-15T02:17:45.284Z,74.71
2019-06-15T02:20:11.683Z,74.64
2019-06-15T02:22:37.693Z,74.33
2019-06-15T02:25:04.916Z,74.23
2019-06-15T02:27:31.169Z,74.32
2019-06-15T02:29:57.122Z,73.91
2019-06-15T02:32:23.097Z,73.79
2019-06-15T02:34:49.103Z,73.83
2019-06-15T02:37:15.072Z,73.81
2019-06-15T02:39:41.122Z,73.58
2019-06-15T02:42:07.202Z,73.51
2019-06-15T02:44:33.339Z,73.23
2019-06-15T02:46:59.335Z,73.32
2019-06-15T02:49:25.320Z,72.94
2019-06-15T02:51:51.567Z,72.75
2019-06-15T02:54:17.555Z,72.87
2019-06-15T02:56:43.573Z,72.82
2019-06-15T02:59:09.540Z,72.75
2019-06-15T03:01:35.548Z,72.83
2019-06-15T03:04:01.852Z,72.44
2019-06-15T03:06:28.069Z,72.43
2019-06-15T03:08:54.353Z,72.53
2019-06-15T03:11:20.373Z,72.69
2019-06-15T03:13:47.099Z,73.40
2019-06-15T03:16:13.196Z,72.72
2019-06-15T03:18:39.285Z,72.98
2019-06-15T03:21:05.348Z,73.17
2019-06-15T03:23:31.336Z,73.56
2019-06-15T03:26:05.449Z,73.61
2019-06-15T03:28:25.500Z,73.30
2019-06-15T03:30:51.515Z,73.56
2019-06-15T03:33:17.936Z,73.74
2019-06-15T03:35:43.991Z,73.72
2019-06-15T03:38:09.976Z,73.78
2019-06-15T03:40:36.048Z,73.83
2019-06-15T03:43:02.046Z,73.57
2019-06-15T03:45:28.053Z,73.50
2019-06-15T03:47:54.101Z,73.85
2019-06-15T03:50:20.073Z,73.90
2019-06-15T03:52:46.098Z,73.52
2019-06-15T03:55:12.382Z,72.97
2019-06-15T03:57:38.729Z,72.87
2019-06-15T04:00:25.001Z,73.17
2019-06-15T04:02:51.045Z,73.67
2019-06-15T04:05:17.031Z,73.29
2019-06-15T04:07:43.044Z,73.35
2019-06-15T04:10:09.024Z,73.18
2019-06-15T04:12:35.289Z,73.33
2019-06-15T04:15:01.277Z,73.45
2019-06-15T04:17:27.261Z,73.70
2019-06-15T04:19:53.306Z,73.46
2019-06-15T04:22:19.315Z,73.22
2019-06-15T04:24:45.421Z,73.23
2019-06-15T04:27:12.448Z,72.57
2019-06-15T04:29:38.468Z,72.87
2019-06-15T04:32:04.507Z,73.25
2019-06-15T04:34:30.625Z,73.27
2019-06-15T04:36:56.609Z,73.08
2019-06-15T04:39:22.704Z,73.24
2019-06-15T04:41:48.731Z,73.28
2019-06-15T04:44:14.720Z,73.12
2019-06-15T04:46:40.780Z,72.95
2019-06-15T04:49:06.853Z,73.01
2019-06-15T04:51:33.092Z,73.27
2019-06-15T04:53:59.128Z,73.69
2019-06-15T04:56:25.136Z,73.69
2019-06-15T04:58:51.110Z,73.59
2019-06-15T05:01:17.372Z,73.35
2019-06-15T05:03:43.373Z,73.46
2019-06-15T05:06:09.402Z,73.40
2019-06-15T05:08:35.404Z,73.30
2019-06-15T05:11:03.616Z,73.03
2019-06-15T05:13:29.288Z,73.42
2019-06-15T05:15:55.267Z,73.23
2019-06-15T05:18:21.281Z,73.30
2019-06-15T05:20:47.282Z,73.08
2019-06-15T05:23:13.320Z,73.43
2019-06-15T05:25:39.404Z,73.79
2019-06-15T05:28:05.400Z,73.33
2019-06-15T05:30:31.405Z,73.71
2019-06-15T05:32:57.387Z,73.72
2019-06-15T05:35:23.721Z,74.33
2019-06-15T05:37:49.845Z,74.32
2019-06-15T05:40:15.933Z,74.23
2019-06-15T05:42:41.975Z,73.91
2019-06-15T05:45:08.315Z,73.82
2019-06-15T05:47:34.341Z,74.24
2019-06-15T05:50:00.320Z,74.71
2019-06-15T05:52:26.461Z,74.51
2019-06-15T05:54:52.490Z,74.52
2019-06-15T05:57:21.931Z,74.19
2019-06-15T05:59:46.647Z,73.84
2019-06-15T06:02:12.643Z,73.80
2019-06-15T06:04:38.732Z,74.05
2019-06-15T06:07:04.750Z,74.13
2019-06-15T06:09:30.749Z,73.79
2019-06-15T06:11:56.773Z,73.67
2019-06-15T06:14:22.828Z,73.44
2019-06-15T06:16:48.841Z,73.47
2019-06-15T06:19:14.822Z,73.59
2019-06-15T06:21:40.884Z,73.31
2019-06-15T06:24:06.904Z,73.82
2019-06-15T06:26:32.994Z,74.04
2019-06-15T06:28:59.024Z,73.94
2019-06-15T06:31:24.998Z,74.15
2019-06-15T06:33:51.368Z,74.08
2019-06-15T06:36:17.426Z,73.92
2019-06-15T06:38:43.416Z,74.18
2019-06-15T06:41:09.456Z,74.27
2019-06-15T06:43:35.432Z,74.14
2019-06-15T06:46:01.437Z,74.12
2019-06-15T06:48:27.750Z,74.40
2019-06-15T06:50:53.793Z,74.87
2019-06-15T06:53:19.912Z,75.10
2019-06-15T06:55:46.308Z,75.42
2019-06-15T06:58:12.327Z,75.52
2019-06-15T07:00:38.336Z,75.23
2019-06-15T07:03:04.564Z,74.61
2019-06-15T07:05:30.984Z,74.84
2019-06-15T07:07:57.309Z,74.89
2019-06-15T07:10:23.361Z,75.55
2019-06-15T07:12:49.383Z,75.27
2019-06-15T07:15:15.610Z,75.04
2019-06-15T07:17:41.643Z,74.78
2019-06-15T07:20:08.332Z,74.62
2019-06-15T07:22:34.358Z,74.84
2019-06-15T07:25:00.747Z,74.78
2019-06-15T07:27:27.021Z,74.84
2019-06-15T07:29:53.072Z,75.06
2019-06-15T07:32:19.182Z,75.48
2019-06-15T07:34:45.312Z,75.16
2019-06-15T07:37:11.382Z,74.59
2019-06-15T07:39:37.398Z,73.76
2019-06-15T07:42:03.615Z,74.44
2019-06-15T07:44:29.713Z,74.48
2019-06-15T07:46:55.729Z,73.98
2019-06-15T07:49:21.786Z,74.03
2019-06-15T07:51:48.038Z,73.82
2019-06-15T07:54:14.195Z,73.85
2019-06-15T07:56:40.251Z,74.20
2019-06-15T07:59:06.302Z,73.62
2019-06-15T08:01:33.177Z,73.17
2019-06-15T08:03:59.179Z,73.46
2019-06-15T08:06:25.204Z,72.86
2019-06-15T08:08:51.375Z,72.30
2019-06-15T08:11:17.532Z,71.79
2019-06-15T08:13:43.618Z,71.27
2019-06-15T08:16:10.466Z,72.17
2019-06-15T08:18:36.604Z,70.83
2019-06-15T08:21:03.026Z,72.29
2019-06-15T08:23:29.072Z,71.88
2019-06-15T08:25:55.275Z,70.57
2019-06-15T08:28:21.774Z,70.17
2019-06-15T08:30:48.023Z,69.18
2019-06-15T08:33:14.445Z,69.21
2019-06-15T08:35:40.613Z,69.20
2019-06-15T08:38:06.930Z,69.26
2019-06-15T08:40:33.301Z,69.73
2019-06-15T08:42:59.368Z,69.37
2019-06-15T08:45:25.556Z,69.53
2019-06-15T08:47:51.693Z,70.27
2019-06-15T08:50:17.715Z,70.12
2019-06-15T08:52:43.820Z,70.66
2019-06-15T08:55:11.074Z,71.30
2019-06-15T08:57:40.294Z,71.67
2019-06-15T09:00:07.153Z,72.15
2019-06-15T09:02:33.304Z,72.03
2019-06-15T09:04:59.330Z,72.05
2019-06-15T09:07:25.398Z,71.91
2019-06-15T09:09:51.393Z,72.14
2019-06-15T09:12:24.313Z,72.01
2019-06-15T09:14:49.589Z,72.57
2019-06-15T09:17:15.737Z,75.05
2019-06-15T09:19:41.882Z,78.75
2019-06-15T09:22:07.874Z,80.65
2019-06-15T09:24:33.897Z,84.15
2019-06-15T09:26:59.956Z,88.35
2019-06-15T09:29:29.789Z,89.94
2019-06-15T09:31:55.938Z,89.88
2019-06-15T09:34:21.984Z,89.51
2019-06-15T09:36:48.094Z,89.58
2019-06-15T09:39:14.743Z,89.47
2019-06-15T09:41:41.125Z,89.98
2019-06-15T09:44:07.639Z,89.61
2019-06-15T09:46:33.744Z,89.65
2019-06-15T09:48:59.973Z,89.52
2019-06-15T09:51:26.067Z,88.72
2019-06-15T09:53:52.149Z,87.89
2019-06-15T09:56:18.243Z,88.27
2019-06-15T09:58:44.403Z,88.12
2019-06-15T10:01:10.494Z,88.10
2019-06-15T10:03:36.693Z,88.40
2019-06-15T10:06:03.165Z,88.44
2019-06-15T10:08:29.211Z,89.00
2019-06-15T10:10:55.232Z,88.91
2019-06-15T10:13:21.227Z,88.37
2019-06-15T10:15:47.270Z,88.21
2019-06-15T10:18:13.583Z,88.72
2019-06-15T10:20:39.860Z,88.97
2019-06-15T10:23:05.895Z,89.32
2019-06-15T10:25:31.896Z,89.10
2019-06-15T10:27:57.889Z,89.53
2019-06-15T10:30:24.030Z,88.55
2019-06-15T10:32:50.074Z,88.05
2019-06-15T10:35:16.160Z,88.81
2019-06-15T10:37:42.206Z,88.13
2019-06-15T10:40:08.597Z,88.20
2019-06-15T10:42:36.654Z,87.78
2019-06-15T10:45:05.717Z,88.21
2019-06-15T10:47:31.757Z,88.49
2019-06-15T10:49:59.088Z,88.75
2019-06-15T10:52:25.117Z,89.14
2019-06-15T10:54:51.117Z,89.25
2019-06-15T10:57:17.126Z,88.65
2019-06-15T10:59:56.356Z,88.49
2019-06-15T11:02:11.134Z,87.97
2019-06-15T11:04:37.160Z,88.40
2019-06-15T11:07:03.947Z,88.04
2019-06-15T11:09:29.997Z,88.23
2019-06-15T11:11:56.128Z,87.30
2019-06-15T11:14:23.089Z,87.89
2019-06-15T11:16:49.289Z,87.15
2019-06-15T11:19:15.489Z,85.59
2019-06-15T11:21:41.559Z,85.12
2019-06-15T11:24:07.557Z,84.50
2019-06-15T11:26:33.541Z,83.85
2019-06-15T11:28:59.614Z,83.28
2019-06-15T11:31:25.699Z,81.83
2019-06-15T11:33:51.731Z,80.96
2019-06-15T11:36:17.728Z,79.58
2019-06-15T11:38:44.007Z,77.01
2019-06-15T11:41:10.063Z,75.30
2019-06-15T11:43:36.063Z,74.29
2019-06-15T11:46:02.369Z,72.97
2019-06-15T11:48:28.387Z,72.89
2019-06-15T11:50:54.626Z,73.52
2019-06-15T11:53:20.672Z,74.32
2019-06-15T11:55:46.658Z,74.34
2019-06-15T11:58:13.702Z,75.23
2019-06-15T12:00:40.098Z,76.49
2019-06-15T12:03:06.118Z,76.39
2019-06-15T12:05:32.149Z,76.87
2019-06-15T12:07:58.179Z,76.78
2019-06-15T12:10:24.233Z,76.69
2019-06-15T12:12:50.254Z,76.45
2019-06-15T12:15:16.507Z,76.22
2019-06-15T12:17:42.544Z,76.38
2019-06-15T12:20:08.943Z,77.64
2019-06-15T12:22:35.080Z,76.74
2019-06-15T12:25:01.295Z,76.75
2019-06-15T12:27:27.322Z,75.22
2019-06-15T12:29:53.354Z,74.27
2019-06-15T12:32:19.370Z,73.53
2019-06-15T12:34:45.416Z,73.24
2019-06-15T12:37:11.488Z,73.13
2019-06-15T12:39:41.635Z,72.72
2019-06-15T12:42:05.401Z,72.95
2019-06-15T12:44:31.513Z,72.76
2019-06-15T12:46:57.545Z,72.44
2019-06-15T12:49:23.667Z,71.06
2019-06-15T12:51:49.740Z,71.30
2019-06-15T12:54:15.754Z,72.03
2019-06-15T12:56:41.849Z,71.37
2019-06-15T12:59:08.147Z,71.24
2019-06-15T13:01:34.341Z,69.65
2019-06-15T13:04:00.737Z,70.23
2019-06-15T13:06:26.864Z,69.93
2019-06-15T13:08:53.000Z,69.50
2019-06-15T13:11:19.028Z,69.92
2019-06-15T13:13:45.110Z,69.60
2019-06-15T13:16:11.159Z,68.31
2019-06-15T13:18:37.197Z,66.74
2019-06-15T13:21:03.279Z,66.66
2019-06-15T13:23:29.401Z,65.62
2019-06-15T13:25:55.421Z,65.71
2019-06-15T13:28:21.480Z,66.43
2019-06-15T13:30:47.565Z,65.69
2019-06-15T13:33:13.678Z,65.74
2019-06-15T13:35:39.859Z,65.37
2019-06-15T13:38:05.835Z,65.53
2019-06-15T13:40:32.089Z,65.25
2019-06-15T13:42:58.117Z,65.51
2019-06-15T13:45:24.185Z,66.14
2019-06-15T13:47:50.213Z,66.54
2019-06-15T13:50:16.506Z,65.87
2019-06-15T13:52:42.713Z,66.05
2019-06-15T13:55:09.121Z,66.02
2019-06-15T13:57:35.086Z,66.09
2019-06-15T14:00:01.327Z,66.14
2019-06-15T14:02:27.424Z,66.02
2019-06-15T14:04:53.538Z,66.11
2019-06-15T14:07:19.876Z,65.59
2019-06-15T14:09:45.913Z,64.85
2019-06-15T14:12:12.128Z,63.90
2019-06-15T14:14:38.205Z,62.98
2019-06-15T14:17:04.575Z,64.76
2019-06-15T14:19:30.560Z,63.90
2019-06-15T14:21:56.604Z,66.38
2019-06-15T14:24:22.611Z,66.68
2019-06-15T14:26:48.685Z,66.27
2019-06-15T14:29:17.445Z,66.48
2019-06-15T14:31:50.197Z,67.52
2019-06-15T14:34:10.648Z,68.10
2019-06-15T14:36:36.623Z,67.83
2019-06-15T14:39:05.233Z,68.83
2019-06-15T14:41:31.328Z,69.51
2019-06-15T14:43:57.360Z,70.50
2019-06-15T14:46:23.362Z,69.77
2019-06-15T14:48:49.402Z,70.18
2019-06-15T14:51:15.499Z,70.53
2019-06-15T14:53:45.182Z,70.64
2019-06-15T14:56:09.470Z,71.14
2019-06-15T14:58:36.570Z,70.98
2019-06-15T15:01:02.860Z,70.98
2019-06-15T15:03:29.686Z,72.11
2019-06-15T15:05:55.798Z,72.06
2019-06-15T15:08:21.897Z,72.24
2019-06-15T15:10:48.005Z,72.66
2019-06-15T15:13:14.062Z,72.88
2019-06-15T15:15:40.096Z,72.33
2019-06-15T15:18:06.972Z,72.00
2019-06-15T15:20:33.128Z,72.63
2019-06-15T15:22:59.202Z,72.42
2019-06-15T15:25:26.282Z,71.98
2019-06-15T15:27:52.457Z,70.88
2019-06-15T15:30:27.106Z,71.28
2019-06-15T15:32:53.403Z,71.53
2019-06-15T15:35:19.393Z,71.53
2019-06-15T15:37:46.353Z,70.55
2019-06-15T15:40:12.597Z,70.39
2019-06-15T15:42:38.717Z,70.43
2019-06-15T15:45:07.659Z,70.88
2019-06-15T15:47:35.935Z,71.26
2019-06-15T15:50:06.261Z,71.47
2019-06-15T15:52:31.609Z,71.34
2019-06-15T15:54:57.782Z,72.10
2019-06-15T15:57:26.249Z,71.83
2019-06-15T15:59:51.835Z,72.00
2019-06-15T16:02:17.937Z,71.47
2019-06-15T16:04:43.952Z,71.53
2019-06-15T16:07:10.220Z,71.58
2019-06-15T16:09:36.302Z,71.70
2019-06-15T16:12:02.527Z,71.66
2019-06-15T16:14:28.644Z,71.22
2019-06-15T16:16:56.000Z,72.01
2019-06-15T16:19:22.204Z,71.88
2019-06-15T16:21:48.202Z,71.87
2019-06-15T16:24:16.673Z,71.27
2019-06-15T16:26:42.629Z,71.93
2019-06-15T16:29:08.721Z,71.60
2019-06-15T16:31:37.223Z,71.75
2019-06-15T16:34:03.024Z,71.56
2019-06-15T16:36:30.097Z,71.87
2019-06-15T16:38:56.121Z,71.30
2019-06-15T16:41:22.208Z,71.20
2019-06-15T16:43:48.520Z,71.15
2019-06-15T16:46:17.018Z,70.68
2019-06-15T16:48:42.593Z,71.41
2019-06-15T16:51:08.780Z,72.47
2019-06-15T16:53:37.244Z,72.68
2019-06-15T16:56:03.165Z,72.42
2019-06-15T16:58:29.133Z,72.77
2019-06-15T17:00:57.098Z,73.06
2019-06-15T17:03:26.076Z,72.56
2019-06-15T17:05:51.110Z,73.06
2019-06-15T17:08:17.421Z,73.24
2019-06-15T17:10:43.573Z,73.30
2019-06-15T17:13:10.002Z,73.34
2019-06-15T17:15:37.175Z,73.32
2019-06-15T17:18:03.796Z,73.08
2019-06-15T17:20:36.684Z,73.04
2019-06-15T17:23:02.670Z,73.46
2019-06-15T17:25:28.691Z,73.82
2019-06-15T17:27:56.336Z,74.19
2019-06-15T17:30:22.628Z,74.59
2019-06-15T17:32:48.772Z,75.02
2019-06-15T17:35:16.898Z,76.04
2019-06-15T17:37:42.791Z,76.04
2019-06-15T17:40:09.045Z,76.23
2019-06-15T17:42:36.923Z,77.29
2019-06-15T17:45:06.522Z,77.04
2019-06-15T17:47:32.310Z,76.95
2019-06-15T17:49:58.313Z,77.00
2019-06-15T17:52:26.415Z,77.42
2019-06-15T17:54:52.645Z,78.36
2019-06-15T17:57:18.735Z,78.48
2019-06-15T17:59:46.902Z,79.51
2019-06-15T18:02:12.710Z,80.01
2019-06-15T18:04:38.789Z,80.18
2019-06-15T18:07:05.827Z,81.00
2019-06-15T18:09:31.883Z,80.71
2019-06-15T18:11:57.981Z,80.28
2019-06-15T18:14:26.264Z,80.62
2019-06-15T18:16:52.012Z,80.67
2019-06-15T18:19:17.997Z,79.56
2019-06-15T18:21:46.501Z,80.61
2019-06-15T18:24:12.027Z,80.51
2019-06-15T18:26:38.108Z,80.18
2019-06-15T18:29:04.202Z,80.80
2019-06-15T18:31:30.262Z,80.50
2019-06-15T18:34:08.892Z,80.73
2019-06-15T18:36:26.079Z,80.38
2019-06-15T18:38:52.092Z,79.96
2019-06-15T18:41:18.191Z,79.93
2019-06-15T18:43:44.505Z,80.16
2019-06-15T18:46:10.600Z,79.66
2019-06-15T18:48:36.612Z,80.20
2019-06-15T18:51:02.792Z,79.92
2019-06-15T18:53:28.856Z,80.54
2019-06-15T18:55:56.241Z,80.29
2019-06-15T18:58:22.499Z,80.83
2019-06-15T19:00:48.511Z,80.80
2019-06-15T19:03:16.820Z,81.12
2019-06-15T19:05:43.205Z,81.17
2019-06-15T19:08:09.270Z,82.15
2019-06-15T19:10:36.205Z,82.21
2019-06-15T19:13:04.007Z,81.62
2019-06-15T19:15:30.342Z,81.78
2019-06-15T19:17:56.589Z,81.95
2019-06-15T19:20:22.595Z,81.79
2019-06-15T19:22:48.942Z,81.20
2019-06-15T19:25:16.177Z,80.39
2019-06-15T19:27:42.342Z,80.44
2019-06-15T19:30:08.605Z,80.20
2019-06-15T19:32:36.828Z,79.41
2019-06-15T19:35:04.836Z,79.28
2019-06-15T19:37:33.847Z,78.74
2019-06-15T19:39:58.941Z,78.59
2019-06-15T19:42:25.998Z,78.78
2019-06-15T19:44:52.149Z,78.22
2019-06-15T19:47:18.401Z,78.09
2019-06-15T19:49:46.556Z,77.96
2019-06-15T19:52:12.392Z,78.25
2019-06-15T19:54:38.565Z,78.05
2019-06-15T19:57:06.854Z,77.71
2019-06-15T19:59:32.770Z,78.50
2019-06-15T20:02:01.532Z,78.87
2019-06-15T20:04:27.616Z,78.44
2019-06-15T20:06:53.697Z,78.38
2019-06-15T20:09:19.802Z,79.16
2019-06-15T20:11:46.880Z,79.13
2019-06-15T20:14:13.028Z,79.07
2019-06-15T20:16:39.053Z,79.78
2019-06-15T20:19:06.823Z,79.30
2019-06-15T20:21:33.194Z,79.99
2019-06-15T20:23:59.371Z,79.66
2019-06-15T20:26:26.816Z,79.76
2019-06-15T20:28:53.098Z,79.78
2019-06-15T20:31:19.159Z,80.41
2019-06-15T20:33:46.611Z,80.63
2019-06-15T20:36:13.207Z,80.96
2019-06-15T20:38:39.473Z,81.44
2019-06-15T20:41:08.758Z,82.01
2019-06-15T20:43:36.584Z,81.92
2019-06-15T20:46:02.999Z,81.64
2019-06-15T20:48:29.063Z,81.70
2019-06-15T20:50:56.751Z,81.79
2019-06-15T20:53:22.948Z,81.32
2019-06-15T20:55:49.255Z,81.50
2019-06-15T20:58:17.063Z,82.60
2019-06-15T21:00:43.164Z,82.95
2019-06-15T21:03:09.165Z,83.34
2019-06-15T21:05:41.551Z,83.78
2019-06-15T21:08:03.493Z,83.13
2019-06-15T21:10:29.522Z,83.10
2019-06-15T21:12:55.670Z,83.04
2019-06-15T21:15:25.491Z,83.03
2019-06-15T21:17:51.632Z,83.19
2019-06-15T21:20:17.637Z,83.57
2019-06-15T21:22:46.352Z,82.96
2019-06-15T21:25:11.875Z,82.55
2019-06-15T21:27:37.892Z,82.73
2019-06-15T21:30:08.080Z,82.54
2019-06-15T21:32:34.121Z,82.15
2019-06-15T21:35:00.159Z,82.28
2019-06-15T21:37:26.182Z,82.66
2019-06-15T21:39:52.194Z,82.57
2019-06-15T21:42:18.175Z,82.73
2019-06-15T21:44:46.789Z,83.89
2019-06-15T21:47:12.132Z,84.12
2019-06-15T21:49:38.268Z,84.85
2019-06-15T21:52:04.263Z,84.84
2019-06-15T21:54:30.232Z,84.95
2019-06-15T21:56:56.508Z,84.91
2019-06-15T21:59:22.683Z,85.37
2019-06-15T22:01:48.756Z,86.33
2019-06-15T22:04:16.661Z,85.86
2019-06-15T22:06:42.670Z,86.44
2019-06-15T22:09:10.676Z,87.16
2019-06-15T22:11:36.690Z,87.37
2019-06-15T22:14:02.815Z,87.54
2019-06-15T22:16:29.004Z,87.83
2019-06-15T22:18:55.142Z,87.46
2019-06-15T22:21:21.359Z,86.54
2019-06-15T22:23:47.531Z,86.29
2019-06-15T22:26:13.536Z,85.40
2019-06-15T22:28:39.663Z,85.58
2019-06-15T22:31:06.687Z,86.21
2019-06-15T22:33:33.012Z,86.53
2019-06-15T22:35:59.025Z,86.66
2019-06-15T22:38:25.062Z,87.21
2019-06-15T22:40:51.064Z,88.32
2019-06-15T22:43:17.275Z,88.55
2019-06-15T22:45:43.313Z,88.52
2019-06-15T22:48:09.623Z,87.91
2019-06-15T22:50:36.197Z,87.93
2019-06-15T22:53:04.704Z,86.65
2019-06-15T22:55:30.481Z,87.66
2019-06-15T22:57:56.729Z,87.46
2019-06-15T23:00:22.847Z,87.22
2019-06-15T23:02:48.880Z,87.08
2019-06-15T23:05:17.118Z,86.82
2019-06-15T23:07:42.970Z,85.92
2019-06-15T23:10:09.876Z,85.79
2019-06-15T23:12:37.139Z,85.51
2019-06-15T23:15:06.998Z,85.49
2019-06-15T23:17:33.142Z,85.33
2019-06-15T23:19:59.379Z,84.66
2019-06-15T23:22:25.490Z,85.20
2019-06-15T23:24:51.522Z,85.52
2019-06-15T23:27:17.529Z,85.94
2019-06-15T23:29:46.085Z,85.87
2019-06-15T23:32:11.514Z,85.41
2019-06-15T23:34:37.493Z,85.40
2019-06-15T23:37:07.959Z,85.34
2019-06-15T23:39:36.084Z,84.79
2019-06-15T23:42:01.912Z,85.21
2019-06-15T23:44:28.041Z,84.72
2019-06-15T23:46:54.024Z,84.99
2019-06-15T23:49:20.103Z,85.11
2019-06-15T23:51:46.735Z,84.61
2019-06-15T23:54:12.945Z,84.79
2019-06-15T23:56:39.248Z,84.34
2019-06-15T23:59:07.033Z,84.98
